DAL200 KATL-FAOR
Flight info
| Callsign | DAL200 |
|---|---|
| Flight time | N/A |
| Altitude | 33000 |
| Route | GAIRY2 IRQ DCT DEDDY Y436 JAINS/M084F330 DCT BOREX/M084F350 DCT VINSO DCT KAVAX DCT DABAK/N0495F350 UL375 IRAXI/N0493F370 UL375 TODIS DCT MALRO DCT TELET DCT UKEDI UL375 DIGOR DCT 02S025W/N0485F390 06S020W 09S015W 12S010W 15S005W 17S000E/N0479F410 19S005E 21S010E DCT ETUDU DCT XALVI UN181 PEDIL UQ19 AVAGO AVAGO1D |
| Aircraft | A359/H-SDE2E3GHIJ3J4J5LM1ORWXY/LB1D1 |
Departure
| Time | N/A |
|---|---|
| Airport | Hartsfield Jackson Atlanta International Airport (KATL) |
Arrival
| Time | 2026-05-06 15:07 |
|---|---|
| Airport | O.R. Tambo International Airport (FAOR) |
| Time | Latitude | Longitude | Altitude | Speed | Heading |
|---|---|---|---|---|---|
| 2026-05-06 14:48 | -25.66261 | 26.88929 | 27838 ft | 487 kts | 92° |
| 2026-05-06 14:48 | -25.66648 | 26.92648 | 27394 ft | 482 kts | 92° |
| 2026-05-06 14:48 | -25.67025 | 26.96280 | 26939 ft | 477 kts | 92° |
| 2026-05-06 14:49 | -25.67402 | 26.99918 | 26482 ft | 472 kts | 92° |
| 2026-05-06 14:49 | -25.67774 | 27.03516 | 26027 ft | 468 kts | 92° |
| 2026-05-06 14:49 | -25.68143 | 27.07093 | 25623 ft | 463 kts | 91° |
| 2026-05-06 14:49 | -25.68509 | 27.10657 | 25390 ft | 466 kts | 91° |
| 2026-05-06 14:50 | -25.68875 | 27.14232 | 25164 ft | 467 kts | 91° |
| 2026-05-06 14:50 | -25.69240 | 27.17792 | 24914 ft | 465 kts | 91° |
| 2026-05-06 14:50 | -25.69606 | 27.21357 | 24685 ft | 464 kts | 91° |
| 2026-05-06 14:50 | -25.69969 | 27.24905 | 24468 ft | 462 kts | 91° |
| 2026-05-06 14:51 | -25.70328 | 27.28428 | 24290 ft | 456 kts | 91° |
| 2026-05-06 14:51 | -25.70681 | 27.31871 | 24171 ft | 443 kts | 91° |
| 2026-05-06 14:51 | -25.71023 | 27.35214 | 24052 ft | 430 kts | 91° |
| 2026-05-06 14:51 | -25.71354 | 27.38471 | 23917 ft | 419 kts | 91° |
| 2026-05-06 14:52 | -25.71675 | 27.41652 | 23699 ft | 411 kts | 91° |
| 2026-05-06 14:52 | -25.72275 | 27.44753 | 23487 ft | 415 kts | 109° |
| 2026-05-06 14:52 | -25.73510 | 27.47719 | 23422 ft | 435 kts | 116° |
| 2026-05-06 14:52 | -25.75309 | 27.50482 | 23247 ft | 446 kts | 135° |
| 2026-05-06 14:53 | -25.77660 | 27.52696 | 22974 ft | 442 kts | 144° |
| 2026-05-06 14:53 | -25.80141 | 27.54701 | 22668 ft | 440 kts | 146° |
| 2026-05-06 14:53 | -25.82632 | 27.56659 | 22410 ft | 438 kts | 146° |
| 2026-05-06 14:53 | -25.85118 | 27.58597 | 22142 ft | 436 kts | 146° |
| 2026-05-06 14:54 | -25.87610 | 27.60535 | 21879 ft | 436 kts | 146° |
| 2026-05-06 14:54 | -25.90061 | 27.62439 | 21597 ft | 436 kts | 146° |
| 2026-05-06 14:54 | -25.92545 | 27.64367 | 21284 ft | 434 kts | 146° |
| 2026-05-06 14:54 | -25.95014 | 27.66287 | 21018 ft | 432 kts | 146° |
| 2026-05-06 14:55 | -25.97480 | 27.68203 | 20587 ft | 432 kts | 146° |
| 2026-05-06 14:55 | -25.99940 | 27.70113 | 20033 ft | 431 kts | 146° |
| 2026-05-06 14:55 | -26.02403 | 27.72026 | 19515 ft | 430 kts | 146° |
| 2026-05-06 14:55 | -26.04830 | 27.73913 | 18890 ft | 421 kts | 146° |
| 2026-05-06 14:56 | -26.07210 | 27.75765 | 18211 ft | 416 kts | 146° |
| 2026-05-06 14:56 | -26.09578 | 27.77607 | 17565 ft | 414 kts | 146° |
| 2026-05-06 14:56 | -26.11931 | 27.79440 | 16969 ft | 412 kts | 146° |
| 2026-05-06 14:56 | -26.14276 | 27.81266 | 16288 ft | 408 kts | 146° |
| 2026-05-06 14:57 | -26.16588 | 27.83069 | 15411 ft | 403 kts | 146° |
| 2026-05-06 14:57 | -26.18866 | 27.84845 | 14650 ft | 396 kts | 146° |
| 2026-05-06 14:57 | -26.21112 | 27.86598 | 13857 ft | 391 kts | 145° |
| 2026-05-06 14:57 | -26.23324 | 27.88325 | 12967 ft | 385 kts | 145° |
| 2026-05-06 14:58 | -26.25512 | 27.90034 | 12163 ft | 384 kts | 146° |
| 2026-05-06 14:58 | -26.27677 | 27.91726 | 11841 ft | 375 kts | 146° |
| 2026-05-06 14:58 | -26.29780 | 27.93371 | 11618 ft | 364 kts | 146° |
| 2026-05-06 14:58 | -26.31799 | 27.95015 | 11344 ft | 355 kts | 140° |
| 2026-05-06 14:59 | -26.33340 | 27.97123 | 10981 ft | 349 kts | 117° |
| 2026-05-06 14:59 | -26.34381 | 27.99535 | 10626 ft | 344 kts | 110° |
| 2026-05-06 14:59 | -26.35306 | 28.01984 | 10303 ft | 342 kts | 109° |
| 2026-05-06 14:59 | -26.36210 | 28.04434 | 9980 ft | 341 kts | 109° |
| 2026-05-06 15:00 | -26.37104 | 28.06878 | 9623 ft | 339 kts | 109° |
| 2026-05-06 15:00 | -26.37967 | 28.09243 | 9264 ft | 324 kts | 109° |
| 2026-05-06 15:00 | -26.38800 | 28.11511 | 8898 ft | 307 kts | 109° |
| 2026-05-06 15:00 | -26.39597 | 28.13661 | 8527 ft | 293 kts | 109° |
| 2026-05-06 15:01 | -26.40241 | 28.15772 | 8172 ft | 282 kts | 93° |
| 2026-05-06 15:01 | -26.40049 | 28.17812 | 7994 ft | 250 kts | 57° |
| 2026-05-06 15:01 | -26.38985 | 28.19111 | 7986 ft | 221 kts | 18° |
| 2026-05-06 15:01 | -26.37490 | 28.19351 | 8036 ft | 223 kts | 351° |
| 2026-05-06 15:02 | -26.35987 | 28.19324 | 7977 ft | 204 kts | 356° |
| 2026-05-06 15:02 | -26.34632 | 28.19406 | 7999 ft | 190 kts | 359° |
| 2026-05-06 15:02 | -26.33335 | 28.19631 | 7998 ft | 190 kts | 5° |
| 2026-05-06 15:02 | -26.32033 | 28.19980 | 7997 ft | 194 kts | 8° |
| 2026-05-06 15:03 | -26.30724 | 28.20384 | 7995 ft | 196 kts | 9° |
| 2026-05-06 15:03 | -26.29451 | 28.20789 | 7984 ft | 183 kts | 8° |
| 2026-05-06 15:03 | -26.28241 | 28.21164 | 7870 ft | 178 kts | 7° |
| 2026-05-06 15:03 | -26.27055 | 28.21519 | 7642 ft | 175 kts | 8° |
| 2026-05-06 15:04 | -26.25910 | 28.21880 | 7402 ft | 165 kts | 8° |
| 2026-05-06 15:04 | -26.24845 | 28.22214 | 7188 ft | 155 kts | 6° |
| 2026-05-06 15:04 | -26.23806 | 28.22535 | 7016 ft | 154 kts | 7° |
| 2026-05-06 15:04 | -26.22797 | 28.22845 | 6828 ft | 151 kts | 11° |
| 2026-05-06 15:05 | -26.21765 | 28.23168 | 6632 ft | 150 kts | 10° |
| 2026-05-06 15:05 | -26.20800 | 28.23470 | 6481 ft | 141 kts | 9° |
| 2026-05-06 15:05 | -26.19868 | 28.23758 | 6262 ft | 141 kts | 8° |
| 2026-05-06 15:05 | -26.18920 | 28.24043 | 6046 ft | 142 kts | 8° |
| 2026-05-06 15:06 | -26.17960 | 28.24350 | 5865 ft | 146 kts | 11° |
| 2026-05-06 15:06 | -26.16987 | 28.24662 | 5655 ft | 145 kts | 10° |
| 2026-05-06 15:06 | -26.16017 | 28.24963 | 5531 ft | 144 kts | 9° |
| 2026-05-06 15:06 | -26.15145 | 28.25224 | 5516 ft | 105 kts | 16° |
| 2026-05-06 15:07 | -26.14720 | 28.25357 | 5511 ft | 35 kts | 15° |
| 2026-05-06 15:07 | -26.14496 | 28.25425 | 5513 ft | 33 kts | 15° |
| 2026-05-06 15:07 | -26.14281 | 28.25479 | 5517 ft | 30 kts | 3° |
| 2026-05-06 15:07 | -26.14079 | 28.25454 | 5517 ft | 23 kts | 351° |
| 2026-05-06 15:08 | -26.14062 | 28.25451 | 5517 ft | 0 kts | 351° |
| 2026-05-06 15:08 | -26.14018 | 28.25443 | 5517 ft | 21 kts | 351° |
| 2026-05-06 15:08 | -26.13853 | 28.25422 | 5515 ft | 24 kts | 5° |
| 2026-05-06 15:08 | -26.13685 | 28.25469 | 5512 ft | 26 kts | 16° |
| 2026-05-06 15:09 | -26.13505 | 28.25524 | 5511 ft | 15 kts | 10° |
| 2026-05-06 15:09 | -26.13466 | 28.25526 | 5515 ft | 18 kts | 356° |
| 2026-05-06 15:09 | -26.13339 | 28.25499 | 5522 ft | 17 kts | 349° |
| 2026-05-06 15:09 | -26.13232 | 28.25475 | 5527 ft | 14 kts | 348° |
| 2026-05-06 15:10 | -26.13140 | 28.25451 | 5532 ft | 15 kts | 343° |
| 2026-05-06 15:10 | -26.13026 | 28.25393 | 5532 ft | 19 kts | 326° |
| 2026-05-06 15:10 | -26.12929 | 28.25292 | 5532 ft | 19 kts | 307° |
| 2026-05-06 15:10 | -26.12866 | 28.25161 | 5532 ft | 18 kts | 290° |
| 2026-05-06 15:11 | -26.12832 | 28.25036 | 5532 ft | 17 kts | 286° |
| 2026-05-06 15:11 | -26.12799 | 28.24907 | 5532 ft | 18 kts | 286° |
| 2026-05-06 15:11 | -26.12767 | 28.24775 | 5532 ft | 18 kts | 285° |
| 2026-05-06 15:11 | -26.12734 | 28.24641 | 5533 ft | 18 kts | 285° |
| 2026-05-06 15:12 | -26.12702 | 28.24518 | 5541 ft | 15 kts | 286° |
| 2026-05-06 15:12 | -26.12674 | 28.24411 | 5546 ft | 13 kts | 286° |
| 2026-05-06 15:12 | -26.12651 | 28.24318 | 5546 ft | 12 kts | 286° |
| 2026-05-06 15:12 | -26.12628 | 28.24230 | 5548 ft | 12 kts | 286° |
| 2026-05-06 15:13 | -26.12606 | 28.24141 | 5548 ft | 12 kts | 285° |
| 2026-05-06 15:13 | -26.12582 | 28.24048 | 5549 ft | 13 kts | 285° |
| 2026-05-06 15:13 | -26.12558 | 28.23953 | 5552 ft | 12 kts | 286° |
| 2026-05-06 15:13 | -26.12503 | 28.23895 | 5552 ft | 11 kts | 359° |
| 2026-05-06 15:14 | -26.12424 | 28.23920 | 5551 ft | 13 kts | 15° |
| 2026-05-06 15:14 | -26.12328 | 28.23949 | 5546 ft | 16 kts | 15° |
| 2026-05-06 15:14 | -26.12212 | 28.23983 | 5546 ft | 18 kts | 9° |
| 2026-05-06 15:14 | -26.12158 | 28.23932 | 5548 ft | 8 kts | 264° |
| 2026-05-06 15:15 | -26.12202 | 28.23904 | 5549 ft | 12 kts | 195° |
| 2026-05-06 15:15 | -26.12292 | 28.23876 | 5549 ft | 14 kts | 195° |
| 2026-05-06 15:15 | -26.12393 | 28.23845 | 5548 ft | 16 kts | 194° |
| 2026-05-06 15:15 | -26.12503 | 28.23811 | 5548 ft | 17 kts | 200° |
| 2026-05-06 15:16 | -26.12610 | 28.23768 | 5554 ft | 16 kts | 197° |
| 2026-05-06 15:16 | -26.12710 | 28.23736 | 5555 ft | 15 kts | 195° |
| 2026-05-06 15:16 | -26.12801 | 28.23703 | 5555 ft | 13 kts | 210° |
| 2026-05-06 15:16 | -26.12821 | 28.23618 | 5555 ft | 12 kts | 277° |
| 2026-05-06 15:17 | -26.12812 | 28.23529 | 5554 ft | 9 kts | 270° |
| 2026-05-06 15:17 | -26.12845 | 28.23496 | 5557 ft | 6 kts | 184° |
| 2026-05-06 15:17 | -26.12892 | 28.23491 | 5555 ft | 7 kts | 186° |
| 2026-05-06 15:17 | -26.12906 | 28.23489 | 5554 ft | 0 kts | 186° |
| 2026-05-06 15:18 | -26.12911 | 28.23489 | 5554 ft | 2 kts | 187° |
| 2026-05-06 15:18 | -26.12913 | 28.23488 | 5558 ft | 0 kts | 187° |